createdAt,value
2023-03-06T00:00:50.200Z,78.48
2023-03-06T00:03:17.327Z,78.36
2023-03-06T00:05:44.530Z,78.77
2023-03-06T00:08:11.591Z,79.22
2023-03-06T00:10:40.188Z,78.79
2023-03-06T00:13:10.866Z,79.45
2023-03-06T00:15:37.750Z,78.54
2023-03-06T00:18:05.845Z,78.64
2023-03-06T00:20:33.735Z,78.71
2023-03-06T00:23:00.676Z,79.24
2023-03-06T00:25:27.590Z,79.24
2023-03-06T00:27:54.413Z,79.72
2023-03-06T00:30:24.536Z,79.79
2023-03-06T00:32:53.014Z,80.01
2023-03-06T00:35:20.717Z,80.16
2023-03-06T00:37:47.953Z,79.96
2023-03-06T00:40:18.466Z,80.25
2023-03-06T00:42:45.741Z,79.87
2023-03-06T00:45:12.712Z,80.18
2023-03-06T00:47:40.129Z,80.29
2023-03-06T00:50:07.953Z,80.58
2023-03-06T00:52:34.773Z,80.42
2023-03-06T00:55:02.022Z,80.32
2023-03-06T00:57:29.034Z,79.96
2023-03-06T00:59:57.474Z,80.27
2023-03-06T01:02:24.343Z,79.85
2023-03-06T01:04:53.817Z,80.05
2023-03-06T01:07:20.631Z,79.97
2023-03-06T01:09:47.426Z,79.87
2023-03-06T01:12:15.190Z,79.90
2023-03-06T01:14:42.013Z,79.43
2023-03-06T01:17:10.158Z,79.46
2023-03-06T01:19:37.027Z,79.75
2023-03-06T01:22:04.238Z,79.16
2023-03-06T01:24:31.712Z,79.61
2023-03-06T01:26:58.623Z,79.25
2023-03-06T01:29:26.444Z,79.25
2023-03-06T01:31:53.468Z,78.76
2023-03-06T01:34:20.718Z,78.99
2023-03-06T01:36:47.582Z,78.82
2023-03-06T01:39:14.371Z,79.68
2023-03-06T01:41:41.490Z,79.57
2023-03-06T01:44:13.623Z,80.05
2023-03-06T01:46:42.362Z,80.47
2023-03-06T01:49:25.042Z,80.22
2023-03-06T01:51:54.494Z,80.27
2023-03-06T01:54:26.624Z,80.57
2023-03-06T01:56:58.992Z,80.70
2023-03-06T01:59:27.980Z,80.39
2023-03-06T02:01:57.099Z,79.96
2023-03-06T02:04:24.491Z,80.05
2023-03-06T02:06:51.912Z,79.89
2023-03-06T02:09:18.843Z,79.97
2023-03-06T02:11:46.351Z,80.19
2023-03-06T02:14:18.048Z,80.03
2023-03-06T02:16:45.085Z,79.68
2023-03-06T02:19:33.928Z,79.73
2023-03-06T02:22:01.022Z,79.95
2023-03-06T02:24:58.339Z,79.86
2023-03-06T02:27:26.018Z,79.48
2023-03-06T02:29:55.575Z,79.51
2023-03-06T02:32:22.565Z,79.60
2023-03-06T02:34:53.999Z,80.29
2023-03-06T02:37:21.528Z,79.34
2023-03-06T02:39:54.804Z,79.77
2023-03-06T02:42:25.633Z,79.40
2023-03-06T02:44:55.101Z,78.88
2023-03-06T02:47:22.146Z,79.52
2023-03-06T02:49:49.431Z,78.35
2023-03-06T02:52:18.328Z,78.85
2023-03-06T02:54:45.212Z,78.95
2023-03-06T02:57:12.288Z,78.06
2023-03-06T02:59:39.433Z,78.57
2023-03-06T03:02:06.929Z,78.30
2023-03-06T03:04:34.635Z,78.97
2023-03-06T03:07:02.590Z,78.82
2023-03-06T03:09:36.678Z,78.77
2023-03-06T03:12:07.548Z,79.49
2023-03-06T03:14:34.837Z,79.93
2023-03-06T03:17:03.457Z,79.88
2023-03-06T03:19:30.459Z,80.33
2023-03-06T03:21:57.327Z,79.90
2023-03-06T03:24:25.042Z,80.74
2023-03-06T03:26:52.674Z,79.81
2023-03-06T03:29:21.796Z,79.77
2023-03-06T03:31:48.707Z,78.97
2023-03-06T03:34:15.724Z,79.29
2023-03-06T03:36:42.994Z,79.14
2023-03-06T03:39:11.786Z,79.54
2023-03-06T03:41:38.977Z,79.41
2023-03-06T03:44:08.338Z,78.33
2023-03-06T03:46:35.370Z,78.74
2023-03-06T03:49:04.258Z,78.98
2023-03-06T03:51:33.439Z,78.95
2023-03-06T03:54:00.548Z,78.92
2023-03-06T03:56:32.211Z,79.04
2023-03-06T03:59:07.939Z,78.85
2023-03-06T04:01:41.298Z,79.64
2023-03-06T04:04:08.413Z,79.31
2023-03-06T04:06:35.597Z,78.43
2023-03-06T04:09:04.524Z,79.78
2023-03-06T04:11:32.132Z,78.95
2023-03-06T04:13:59.017Z,78.70
2023-03-06T04:16:26.184Z,78.91
2023-03-06T04:18:53.178Z,78.30
2023-03-06T04:21:21.212Z,78.18
2023-03-06T04:23:48.154Z,77.49
2023-03-06T04:26:15.080Z,77.59
2023-03-06T04:28:41.926Z,78.17
2023-03-06T04:31:12.597Z,78.39
2023-03-06T04:33:39.836Z,78.16
2023-03-06T04:36:07.913Z,77.81
2023-03-06T04:38:35.004Z,78.34
2023-03-06T04:41:04.249Z,78.22
2023-03-06T04:43:31.247Z,77.38
2023-03-06T04:45:58.244Z,77.80
2023-03-06T04:48:25.088Z,77.49
2023-03-06T04:50:52.207Z,77.36
2023-03-06T04:53:21.323Z,77.48
2023-03-06T04:55:48.435Z,76.65
2023-03-06T04:58:15.944Z,77.92
2023-03-06T05:00:42.822Z,76.93
2023-03-06T05:03:10.315Z,78.03
2023-03-06T05:05:37.209Z,76.91
2023-03-06T05:08:06.175Z,76.91
2023-03-06T05:10:33.419Z,78.29
2023-03-06T05:13:00.269Z,77.36
2023-03-06T05:15:27.171Z,77.47
2023-03-06T05:17:54.231Z,76.59
2023-03-06T05:20:21.288Z,76.80
2023-03-06T05:22:48.076Z,77.26
2023-03-06T05:25:14.911Z,77.32
2023-03-06T05:27:42.494Z,77.23
2023-03-06T05:30:12.678Z,77.50
2023-03-06T05:32:39.708Z,77.93
2023-03-06T05:35:07.654Z,77.67
2023-03-06T05:37:35.131Z,77.79
2023-03-06T05:40:06.594Z,78.06
2023-03-06T05:42:33.476Z,77.44
2023-03-06T05:45:01.857Z,76.84
2023-03-06T05:47:28.649Z,76.71
2023-03-06T05:49:55.464Z,76.84
2023-03-06T05:52:22.519Z,76.28
2023-03-06T05:54:53.803Z,76.77
2023-03-06T05:57:22.445Z,76.75
2023-03-06T05:59:50.374Z,76.04
2023-03-06T06:02:18.353Z,76.05
2023-03-06T06:04:45.521Z,76.65
2023-03-06T06:07:17.136Z,76.20
2023-03-06T06:09:45.600Z,77.02
2023-03-06T06:12:13.823Z,76.42
2023-03-06T06:14:40.741Z,76.94
2023-03-06T06:17:07.690Z,75.30
2023-03-06T06:19:34.623Z,75.63
2023-03-06T06:22:03.773Z,74.97
2023-03-06T06:24:31.740Z,75.91
2023-03-06T06:27:01.927Z,75.24
2023-03-06T06:29:30.975Z,75.28
2023-03-06T06:31:58.108Z,75.63
2023-03-06T06:34:25.783Z,74.63
2023-03-06T06:36:54.299Z,75.28
2023-03-06T06:39:23.428Z,75.40
2023-03-06T06:42:03.020Z,74.37
2023-03-06T06:44:38.461Z,74.15
2023-03-06T06:47:24.140Z,73.67
2023-03-06T06:49:53.197Z,74.51
2023-03-06T06:52:20.189Z,74.22
2023-03-06T06:54:47.119Z,75.06
2023-03-06T06:57:14.826Z,73.47
2023-03-06T06:59:41.871Z,72.43
2023-03-06T07:02:12.246Z,73.70
2023-03-06T07:04:44.299Z,74.45
2023-03-06T07:07:16.179Z,75.16
2023-03-06T07:09:43.258Z,74.85
2023-03-06T07:12:10.083Z,75.55
2023-03-06T07:14:37.278Z,73.04
2023-03-06T07:17:04.101Z,73.46
2023-03-06T07:19:30.898Z,73.26
2023-03-06T07:21:57.730Z,73.45
2023-03-06T07:24:24.619Z,72.91
2023-03-06T07:26:51.424Z,72.00
2023-03-06T07:29:18.639Z,71.26
2023-03-06T07:31:46.854Z,70.45
2023-03-06T07:34:15.302Z,70.14
2023-03-06T07:36:42.889Z,70.74
2023-03-06T07:39:10.783Z,71.12
2023-03-06T07:41:38.676Z,69.90
2023-03-06T07:44:05.980Z,69.51
2023-03-06T07:46:32.946Z,68.95
2023-03-06T07:49:00.249Z,67.72
2023-03-06T07:51:27.062Z,67.85
2023-03-06T07:53:54.131Z,67.56
2023-03-06T07:56:21.598Z,67.98
2023-03-06T07:58:48.976Z,68.65
2023-03-06T08:01:19.274Z,67.77
2023-03-06T08:03:46.594Z,68.48
2023-03-06T08:06:19.335Z,66.67
2023-03-06T08:08:49.179Z,66.93
2023-03-06T08:11:18.293Z,67.16
2023-03-06T08:13:45.605Z,66.55
2023-03-06T08:16:12.674Z,66.52
2023-03-06T08:18:40.226Z,65.84
2023-03-06T08:21:19.294Z,64.99
2023-03-06T08:23:46.848Z,65.56
2023-03-06T08:26:20.067Z,64.68
2023-03-06T08:28:47.425Z,64.41
2023-03-06T08:31:25.824Z,64.56
2023-03-06T08:33:53.906Z,64.88
2023-03-06T08:36:20.881Z,64.12
2023-03-06T08:38:48.125Z,64.13
2023-03-06T08:41:15.088Z,62.71
2023-03-06T08:43:42.252Z,62.59
2023-03-06T08:46:10.990Z,62.95
2023-03-06T08:48:38.675Z,62.69
2023-03-06T08:51:05.824Z,63.88
2023-03-06T08:53:42.548Z,64.34
2023-03-06T08:56:27.919Z,62.61
2023-03-06T08:58:57.254Z,62.63
2023-03-06T09:01:29.871Z,62.97
2023-03-06T09:03:59.189Z,62.34
2023-03-06T09:06:27.356Z,61.98
2023-03-06T09:08:54.920Z,62.06
2023-03-06T09:11:24.459Z,62.86
2023-03-06T09:13:52.369Z,63.33
2023-03-06T09:16:19.590Z,61.00
2023-03-06T09:18:46.519Z,59.77
2023-03-06T09:21:13.319Z,60.70
2023-03-06T09:23:40.160Z,59.69
2023-03-06T09:26:08.483Z,57.92
2023-03-06T09:28:36.769Z,58.79
2023-03-06T09:31:08.506Z,59.21
2023-03-06T09:33:35.593Z,57.38
2023-03-06T09:36:03.356Z,57.94
2023-03-06T09:38:30.158Z,58.67
2023-03-06T09:41:05.290Z,59.18
2023-03-06T09:43:38.155Z,59.10
2023-03-06T09:46:23.727Z,59.82
2023-03-06T09:49:21.447Z,59.07
2023-03-06T09:52:03.058Z,58.86
2023-03-06T09:54:46.005Z,59.24
2023-03-06T09:57:38.399Z,59.07
2023-03-06T10:00:12.176Z,57.16
2023-03-06T10:02:44.655Z,56.34
2023-03-06T10:05:27.541Z,53.39
2023-03-06T10:08:05.369Z,53.10
2023-03-06T10:10:47.015Z,53.05
2023-03-06T10:13:25.089Z,53.80
2023-03-06T10:16:01.495Z,54.01
2023-03-06T10:18:28.300Z,52.67
2023-03-06T10:21:07.387Z,51.85
2023-03-06T10:24:01.119Z,52.70
2023-03-06T10:26:37.771Z,52.21
2023-03-06T10:29:27.308Z,51.77
2023-03-06T10:32:12.688Z,51.77
2023-03-06T10:34:41.894Z,52.65
2023-03-06T10:37:21.089Z,52.61
2023-03-06T10:39:57.421Z,53.05
2023-03-06T10:42:25.087Z,52.96
2023-03-06T10:45:15.774Z,53.95
2023-03-06T10:47:44.133Z,54.28
2023-03-06T10:50:24.280Z,54.28
2023-03-06T10:53:06.337Z,53.25
2023-03-06T10:55:37.911Z,51.89
2023-03-06T10:58:19.925Z,51.81
2023-03-06T11:00:46.985Z,52.13
2023-03-06T11:03:16.846Z,53.72
2023-03-06T11:06:02.423Z,54.27
2023-03-06T11:08:29.726Z,53.73
2023-03-06T11:11:36.739Z,53.32
2023-03-06T11:14:14.598Z,52.83
2023-03-06T11:16:52.663Z,50.03
2023-03-06T11:19:27.248Z,49.02
2023-03-06T11:22:16.393Z,48.15
2023-03-06T11:24:48.829Z,43.95
2023-03-06T11:27:34.757Z,45.98
2023-03-06T11:30:18.225Z,43.86
2023-03-06T11:32:59.760Z,41.75
2023-03-06T11:35:35.830Z,40.99
2023-03-06T11:38:16.714Z,43.66
2023-03-06T11:40:51.843Z,44.14
2023-03-06T11:43:57.308Z,46.64
2023-03-06T11:46:33.217Z,47.85
2023-03-06T11:49:12.218Z,48.53
2023-03-06T11:51:45.267Z,49.22
2023-03-06T11:54:14.040Z,50.09
2023-03-06T11:56:51.795Z,50.97
2023-03-06T11:59:46.199Z,50.87
2023-03-06T12:02:28.072Z,50.64
2023-03-06T12:05:22.785Z,50.56
2023-03-06T12:07:57.121Z,50.78
2023-03-06T12:10:51.301Z,48.02
2023-03-06T12:13:18.909Z,47.98
2023-03-06T12:16:09.006Z,48.71
2023-03-06T12:18:42.655Z,50.22
2023-03-06T12:21:33.890Z,51.35
2023-03-06T12:24:17.455Z,51.54
2023-03-06T12:26:54.609Z,49.50
2023-03-06T12:29:51.572Z,49.38
2023-03-06T12:32:38.497Z,50.50
2023-03-06T12:35:37.399Z,51.25
2023-03-06T12:38:17.618Z,50.96
2023-03-06T12:40:56.569Z,49.46
2023-03-06T12:43:40.296Z,46.45
2023-03-06T12:46:19.441Z,47.67
2023-03-06T12:49:01.809Z,47.82
2023-03-06T12:51:29.727Z,42.45
2023-03-06T12:53:59.825Z,39.47
2023-03-06T12:56:28.411Z,42.55
2023-03-06T12:58:57.085Z,45.15
2023-03-06T13:02:05.482Z,45.71
2023-03-06T13:04:47.012Z,46.03
2023-03-06T13:07:40.027Z,42.51
2023-03-06T13:10:33.865Z,42.55
2023-03-06T13:13:05.014Z,43.08
2023-03-06T13:15:39.486Z,42.76
2023-03-06T13:18:21.829Z,42.57
2023-03-06T13:20:53.793Z,42.73
2023-03-06T13:23:34.607Z,42.46
2023-03-06T13:26:09.358Z,41.70
2023-03-06T13:28:39.940Z,41.81
2023-03-06T13:31:18.174Z,42.39
2023-03-06T13:33:54.809Z,43.26
2023-03-06T13:36:25.269Z,43.82
2023-03-06T13:38:53.027Z,43.12
2023-03-06T13:41:22.658Z,44.65
2023-03-06T13:43:51.412Z,45.68
2023-03-06T13:46:28.990Z,46.75
2023-03-06T13:49:14.922Z,46.55
2023-03-06T13:51:54.169Z,46.52
2023-03-06T13:54:52.045Z,43.85
2023-03-06T13:57:33.414Z,42.37
2023-03-06T14:00:51.493Z,43.42
2023-03-06T14:04:00.137Z,44.98
2023-03-06T14:06:35.794Z,45.42
2023-03-06T14:09:08.092Z,43.56
2023-03-06T14:11:36.508Z,39.64
2023-03-06T14:14:04.377Z,38.94
2023-03-06T14:16:49.344Z,38.68
2023-03-06T14:19:18.694Z,38.68
2023-03-06T14:21:47.790Z,38.27
2023-03-06T14:24:20.296Z,39.25
2023-03-06T14:26:51.421Z,42.18
2023-03-06T14:29:21.454Z,44.14
2023-03-06T14:31:50.539Z,45.83
2023-03-06T14:34:29.504Z,46.77
2023-03-06T14:37:05.504Z,45.75
2023-03-06T14:39:40.495Z,44.79
2023-03-06T14:42:28.002Z,44.90
2023-03-06T14:45:02.885Z,45.48
2023-03-06T14:47:37.074Z,46.91
2023-03-06T14:50:27.355Z,47.73
2023-03-06T14:52:56.482Z,48.45
2023-03-06T14:55:28.528Z,48.29
2023-03-06T14:58:08.115Z,48.97
2023-03-06T15:00:40.873Z,50.81
2023-03-06T15:03:16.487Z,51.63
2023-03-06T15:05:45.253Z,52.15
2023-03-06T15:08:18.113Z,54.38
2023-03-06T15:10:56.800Z,55.70
2023-03-06T15:13:26.448Z,56.89
2023-03-06T15:16:04.367Z,56.99
2023-03-06T15:18:38.891Z,58.04
2023-03-06T15:21:18.971Z,57.91
2023-03-06T15:23:47.879Z,58.63
2023-03-06T15:26:25.687Z,59.14
2023-03-06T15:28:59.962Z,60.15
2023-03-06T15:31:35.494Z,60.28
2023-03-06T15:34:11.452Z,60.72
2023-03-06T15:36:42.505Z,60.09
2023-03-06T15:39:29.786Z,60.96
2023-03-06T15:42:14.610Z,61.55
2023-03-06T15:44:41.821Z,62.05
2023-03-06T15:47:11.756Z,61.85
2023-03-06T15:49:39.666Z,62.23
2023-03-06T15:52:07.248Z,61.94
2023-03-06T15:54:34.206Z,62.10
2023-03-06T15:57:05.333Z,62.38
2023-03-06T15:59:41.404Z,62.73
2023-03-06T16:02:15.712Z,62.69
2023-03-06T16:04:43.285Z,63.06
2023-03-06T16:07:10.169Z,62.80
2023-03-06T16:09:37.131Z,63.04
2023-03-06T16:12:04.932Z,63.21
2023-03-06T16:14:32.011Z,63.24
2023-03-06T16:16:59.578Z,63.22
2023-03-06T16:19:28.608Z,62.79
2023-03-06T16:21:56.540Z,63.26
2023-03-06T16:24:24.805Z,62.94
2023-03-06T16:26:53.305Z,62.97
2023-03-06T16:29:25.952Z,62.76
2023-03-06T16:31:55.210Z,63.38
2023-03-06T16:34:22.485Z,63.60
2023-03-06T16:36:50.158Z,63.12
2023-03-06T16:39:19.872Z,63.22
2023-03-06T16:41:47.225Z,63.21
2023-03-06T16:44:14.084Z,63.29
2023-03-06T16:46:46.358Z,63.07
2023-03-06T16:49:18.322Z,62.73
2023-03-06T16:51:45.455Z,62.58
2023-03-06T16:54:12.846Z,62.47
2023-03-06T16:56:39.949Z,62.18
2023-03-06T16:59:06.941Z,61.80
2023-03-06T17:01:34.138Z,61.61
2023-03-06T17:04:01.118Z,61.66
2023-03-06T17:06:28.807Z,61.65
2023-03-06T17:08:58.020Z,61.55
2023-03-06T17:11:25.191Z,61.66
2023-03-06T17:13:52.133Z,61.38
2023-03-06T17:16:18.971Z,61.49
2023-03-06T17:18:54.607Z,61.28
2023-03-06T17:21:21.908Z,61.17
2023-03-06T17:23:51.018Z,61.36
2023-03-06T17:26:19.302Z,61.37
2023-03-06T17:28:47.805Z,61.06
2023-03-06T17:31:24.294Z,61.12
2023-03-06T17:33:57.103Z,60.82
2023-03-06T17:36:24.306Z,61.11
2023-03-06T17:38:54.702Z,60.78
2023-03-06T17:41:24.404Z,61.11
2023-03-06T17:43:55.554Z,60.94
2023-03-06T17:46:22.462Z,59.78
2023-03-06T17:48:49.350Z,59.38
2023-03-06T17:51:16.309Z,59.47
2023-03-06T17:53:43.252Z,59.57
2023-03-06T17:56:13.544Z,59.91
2023-03-06T17:58:40.627Z,59.37
2023-03-06T18:01:19.002Z,59.10
2023-03-06T18:03:48.293Z,59.38
2023-03-06T18:06:16.407Z,59.26
2023-03-06T18:08:44.014Z,58.84
2023-03-06T18:11:12.011Z,58.73
2023-03-06T18:13:40.912Z,59.08
2023-03-06T18:16:08.999Z,59.20
2023-03-06T18:18:36.088Z,59.15
2023-03-06T18:21:12.517Z,59.19
2023-03-06T18:23:41.208Z,59.20
2023-03-06T18:26:24.890Z,58.66
2023-03-06T18:28:55.020Z,58.77
2023-03-06T18:31:28.499Z,58.76
2023-03-06T18:34:00.901Z,59.04
2023-03-06T18:36:30.444Z,59.26
2023-03-06T18:39:03.567Z,59.18
2023-03-06T18:41:30.942Z,59.38
2023-03-06T18:43:59.792Z,59.50
2023-03-06T18:46:30.631Z,59.44
2023-03-06T18:48:57.889Z,59.39
2023-03-06T18:51:24.840Z,59.33
2023-03-06T18:53:51.677Z,59.32
2023-03-06T18:56:22.036Z,59.90
2023-03-06T18:58:50.257Z,59.64
2023-03-06T19:01:17.940Z,59.98
2023-03-06T19:03:44.865Z,59.82
2023-03-06T19:06:14.247Z,59.50
2023-03-06T19:08:41.632Z,59.57
2023-03-06T19:11:13.716Z,59.87
2023-03-06T19:13:41.103Z,59.85
2023-03-06T19:16:08.660Z,59.72
2023-03-06T19:18:35.560Z,59.85
2023-03-06T19:21:14.355Z,59.76
2023-03-06T19:23:42.292Z,59.99
2023-03-06T19:26:09.517Z,60.05
2023-03-06T19:28:38.444Z,60.01
2023-03-06T19:31:13.594Z,60.24
2023-03-06T19:33:41.514Z,60.19
2023-03-06T19:36:11.369Z,60.13
2023-03-06T19:38:38.213Z,59.75
2023-03-06T19:41:05.599Z,60.11
2023-03-06T19:43:32.448Z,60.21
2023-03-06T19:46:00.581Z,60.00
2023-03-06T19:48:27.514Z,60.55
2023-03-06T19:50:54.287Z,59.96
2023-03-06T19:53:21.716Z,59.73
2023-03-06T19:55:48.685Z,59.61
2023-03-06T19:58:15.523Z,60.50
2023-03-06T20:00:43.132Z,59.79
2023-03-06T20:03:09.920Z,60.16
2023-03-06T20:05:36.759Z,60.35
2023-03-06T20:08:03.796Z,60.60
2023-03-06T20:10:30.681Z,60.61
2023-03-06T20:12:57.462Z,60.73
2023-03-06T20:15:24.300Z,60.64
2023-03-06T20:17:51.139Z,61.14
2023-03-06T20:20:18.162Z,61.01
2023-03-06T20:22:44.960Z,60.90
2023-03-06T20:25:12.023Z,61.45
2023-03-06T20:27:39.250Z,61.11
2023-03-06T20:30:08.096Z,61.30
2023-03-06T20:32:35.602Z,61.64
2023-03-06T20:35:03.502Z,61.11
2023-03-06T20:37:30.416Z,61.33
2023-03-06T20:39:57.566Z,61.43
2023-03-06T20:42:24.439Z,61.28
2023-03-06T20:44:51.278Z,61.78
2023-03-06T20:47:18.224Z,61.86
2023-03-06T20:49:45.118Z,61.91
2023-03-06T20:52:11.882Z,61.81
2023-03-06T20:54:38.741Z,62.12
2023-03-06T20:57:05.544Z,61.75
2023-03-06T20:59:32.477Z,62.36
2023-03-06T21:01:59.528Z,62.34
2023-03-06T21:04:26.544Z,62.21
2023-03-06T21:06:54.039Z,62.32
2023-03-06T21:09:20.952Z,62.38
2023-03-06T21:11:48.355Z,62.67
2023-03-06T21:14:15.959Z,62.41
2023-03-06T21:16:42.896Z,62.52
2023-03-06T21:19:10.597Z,62.08
2023-03-06T21:21:37.620Z,62.01
2023-03-06T21:24:05.417Z,62.46
2023-03-06T21:26:35.868Z,61.80
2023-03-06T21:29:04.930Z,62.20
2023-03-06T21:31:33.349Z,61.89
2023-03-06T21:34:01.541Z,62.45
2023-03-06T21:36:29.768Z,62.28
2023-03-06T21:38:56.657Z,61.87
2023-03-06T21:41:28.493Z,62.09
2023-03-06T21:44:01.364Z,61.81
2023-03-06T21:46:29.184Z,62.12
2023-03-06T21:48:56.956Z,62.30
2023-03-06T21:51:25.985Z,62.55
2023-03-06T21:53:54.187Z,62.13
2023-03-06T21:56:23.794Z,62.15
2023-03-06T21:58:50.907Z,61.95
2023-03-06T22:01:20.623Z,62.53
2023-03-06T22:03:47.592Z,62.28
2023-03-06T22:06:25.840Z,62.57
2023-03-06T22:08:55.666Z,62.61
2023-03-06T22:11:25.215Z,62.03
2023-03-06T22:13:56.042Z,62.87
2023-03-06T22:16:23.045Z,62.36
2023-03-06T22:18:51.749Z,62.54
2023-03-06T22:21:20.905Z,62.04
2023-03-06T22:23:59.327Z,61.79
2023-03-06T22:26:31.339Z,61.86
2023-03-06T22:28:58.441Z,61.63
2023-03-06T22:31:28.297Z,61.58
2023-03-06T22:33:56.744Z,61.94
2023-03-06T22:36:25.092Z,61.12
2023-03-06T22:38:57.411Z,61.03
2023-03-06T22:41:26.739Z,61.24
2023-03-06T22:43:57.622Z,61.42
2023-03-06T22:46:25.491Z,61.44
2023-03-06T22:48:52.366Z,61.38
2023-03-06T22:51:20.853Z,61.14
2023-03-06T22:53:48.513Z,61.29
2023-03-06T22:56:18.141Z,61.50
2023-03-06T22:58:45.400Z,61.23
2023-03-06T23:01:15.256Z,61.49
2023-03-06T23:03:45.634Z,61.50
2023-03-06T23:06:15.921Z,61.23
2023-03-06T23:08:43.399Z,61.15
2023-03-06T23:11:12.806Z,60.93
2023-03-06T23:13:58.432Z,60.64
2023-03-06T23:16:44.452Z,60.21
2023-03-06T23:19:30.971Z,60.91
2023-03-06T23:22:16.772Z,60.39
2023-03-06T23:25:03.466Z,60.54
2023-03-06T23:27:30.349Z,60.53
2023-03-06T23:29:58.872Z,60.42
2023-03-06T23:32:25.825Z,60.42
2023-03-06T23:34:52.685Z,60.35
2023-03-06T23:37:19.528Z,60.28
2023-03-06T23:39:46.997Z,60.45
2023-03-06T23:42:13.908Z,60.83
2023-03-06T23:44:40.776Z,60.55
2023-03-06T23:47:07.729Z,60.64
2023-03-06T23:49:34.739Z,60.63
2023-03-06T23:52:01.604Z,60.92
2023-03-06T23:54:28.546Z,60.34
2023-03-06T23:56:55.300Z,60.94
2023-03-06T23:59:22.052Z,61.11
